sensor_id;sensor_type;location;lat;lon;timestamp;P1;durP1;ratioP1;P2;durP2;ratioP2
73776;SDS011;62088;50.240;2.696;2024-01-15T00:00:59;23.52;;;11.18;;
73776;SDS011;62088;50.240;2.696;2024-01-15T00:03:27;29.45;;;13.20;;
73776;SDS011;62088;50.240;2.696;2024-01-15T00:05:54;29.48;;;10.98;;
73776;SDS011;62088;50.240;2.696;2024-01-15T00:08:21;20.20;;;10.80;;
73776;SDS011;62088;50.240;2.696;2024-01-15T00:10:48;25.75;;;12.18;;
73776;SDS011;62088;50.240;2.696;2024-01-15T00:13:15;24.52;;;11.48;;
73776;SDS011;62088;50.240;2.696;2024-01-15T00:15:42;22.17;;;10.88;;
73776;SDS011;62088;50.240;2.696;2024-01-15T00:18:10;21.83;;;11.27;;
73776;SDS011;62088;50.240;2.696;2024-01-15T00:20:37;23.73;;;11.18;;
73776;SDS011;62088;50.240;2.696;2024-01-15T00:23:04;23.75;;;10.27;;
73776;SDS011;62088;50.240;2.696;2024-01-15T00:25:31;23.95;;;10.27;;
73776;SDS011;62088;50.240;2.696;2024-01-15T00:27:59;23.13;;;10.63;;
73776;SDS011;62088;50.240;2.696;2024-01-15T00:30:26;24.50;;;11.38;;
73776;SDS011;62088;50.240;2.696;2024-01-15T00:32:53;24.77;;;10.35;;
73776;SDS011;62088;50.240;2.696;2024-01-15T00:35:20;19.50;;;9.45;;
73776;SDS011;62088;50.240;2.696;2024-01-15T00:37:47;26.27;;;10.57;;
73776;SDS011;62088;50.240;2.696;2024-01-15T00:40:14;20.83;;;10.07;;
73776;SDS011;62088;50.240;2.696;2024-01-15T00:42:42;20.58;;;9.95;;
73776;SDS011;62088;50.240;2.696;2024-01-15T00:45:09;25.48;;;11.00;;
73776;SDS011;62088;50.240;2.696;2024-01-15T00:47:37;19.13;;;9.32;;
73776;SDS011;62088;50.240;2.696;2024-01-15T00:50:04;20.05;;;10.27;;
73776;SDS011;62088;50.240;2.696;2024-01-15T00:52:32;18.05;;;9.20;;
73776;SDS011;62088;50.240;2.696;2024-01-15T00:54:59;19.20;;;9.55;;
73776;SDS011;62088;50.240;2.696;2024-01-15T00:57:26;16.58;;;8.68;;
73776;SDS011;62088;50.240;2.696;2024-01-15T00:59:53;26.58;;;11.13;;
73776;SDS011;62088;50.240;2.696;2024-01-15T01:02:21;22.60;;;10.07;;
73776;SDS011;62088;50.240;2.696;2024-01-15T01:04:48;28.67;;;12.10;;
73776;SDS011;62088;50.240;2.696;2024-01-15T01:07:15;16.83;;;9.05;;
73776;SDS011;62088;50.240;2.696;2024-01-15T01:09:42;24.15;;;9.82;;
73776;SDS011;62088;50.240;2.696;2024-01-15T01:12:10;16.77;;;9.05;;
73776;SDS011;62088;50.240;2.696;2024-01-15T01:14:38;22.73;;;9.98;;
73776;SDS011;62088;50.240;2.696;2024-01-15T01:17:05;24.17;;;9.55;;
73776;SDS011;62088;50.240;2.696;2024-01-15T01:19:32;20.98;;;8.35;;
73776;SDS011;62088;50.240;2.696;2024-01-15T01:22:00;17.60;;;9.65;;
73776;SDS011;62088;50.240;2.696;2024-01-15T01:24:27;22.15;;;10.13;;
73776;SDS011;62088;50.240;2.696;2024-01-15T01:26:54;18.08;;;9.75;;
73776;SDS011;62088;50.240;2.696;2024-01-15T01:29:21;19.98;;;9.57;;
73776;SDS011;62088;50.240;2.696;2024-01-15T01:31:49;16.73;;;9.65;;
73776;SDS011;62088;50.240;2.696;2024-01-15T01:34:16;21.73;;;10.35;;
73776;SDS011;62088;50.240;2.696;2024-01-15T01:36:44;22.73;;;9.85;;
73776;SDS011;62088;50.240;2.696;2024-01-15T01:39:11;24.65;;;11.05;;
73776;SDS011;62088;50.240;2.696;2024-01-15T01:41:39;21.52;;;9.90;;
73776;SDS011;62088;50.240;2.696;2024-01-15T01:44:06;21.75;;;10.98;;
73776;SDS011;62088;50.240;2.696;2024-01-15T01:46:34;23.35;;;9.43;;
73776;SDS011;62088;50.240;2.696;2024-01-15T01:49:06;20.20;;;10.40;;
73776;SDS011;62088;50.240;2.696;2024-01-15T01:51:35;28.92;;;12.20;;
73776;SDS011;62088;50.240;2.696;2024-01-15T01:54:04;19.30;;;10.27;;
73776;SDS011;62088;50.240;2.696;2024-01-15T01:56:33;19.23;;;10.40;;
73776;SDS011;62088;50.240;2.696;2024-01-15T01:59:01;20.90;;;10.35;;
73776;SDS011;62088;50.240;2.696;2024-01-15T02:01:29;16.48;;;8.45;;
73776;SDS011;62088;50.240;2.696;2024-01-15T02:03:57;21.73;;;9.13;;
73776;SDS011;62088;50.240;2.696;2024-01-15T02:06:25;19.33;;;10.57;;
73776;SDS011;62088;50.240;2.696;2024-01-15T02:08:52;24.17;;;10.05;;
73776;SDS011;62088;50.240;2.696;2024-01-15T02:11:20;22.40;;;10.15;;
73776;SDS011;62088;50.240;2.696;2024-01-15T02:13:47;32.30;;;11.60;;
73776;SDS011;62088;50.240;2.696;2024-01-15T02:16:14;18.50;;;8.60;;
73776;SDS011;62088;50.240;2.696;2024-01-15T02:18:42;18.38;;;9.60;;
73776;SDS011;62088;50.240;2.696;2024-01-15T02:21:10;22.50;;;8.93;;
73776;SDS011;62088;50.240;2.696;2024-01-15T02:23:38;17.92;;;9.40;;
73776;SDS011;62088;50.240;2.696;2024-01-15T02:26:05;23.27;;;11.18;;
73776;SDS011;62088;50.240;2.696;2024-01-15T02:28:34;22.00;;;11.27;;
73776;SDS011;62088;50.240;2.696;2024-01-15T02:31:01;27.15;;;10.82;;
73776;SDS011;62088;50.240;2.696;2024-01-15T02:33:29;21.15;;;10.25;;
73776;SDS011;62088;50.240;2.696;2024-01-15T02:35:56;21.08;;;10.57;;
73776;SDS011;62088;50.240;2.696;2024-01-15T02:38:23;20.70;;;10.35;;
73776;SDS011;62088;50.240;2.696;2024-01-15T02:40:50;26.23;;;11.45;;
73776;SDS011;62088;50.240;2.696;2024-01-15T02:43:17;20.27;;;10.38;;
73776;SDS011;62088;50.240;2.696;2024-01-15T02:45:46;23.80;;;10.13;;
73776;SDS011;62088;50.240;2.696;2024-01-15T02:48:16;32.92;;;11.00;;
73776;SDS011;62088;50.240;2.696;2024-01-15T02:50:43;24.35;;;12.80;;
73776;SDS011;62088;50.240;2.696;2024-01-15T02:53:10;24.58;;;11.10;;
73776;SDS011;62088;50.240;2.696;2024-01-15T02:55:37;25.17;;;10.88;;
73776;SDS011;62088;50.240;2.696;2024-01-15T02:58:04;26.02;;;11.68;;
73776;SDS011;62088;50.240;2.696;2024-01-15T03:00:31;22.10;;;11.65;;
73776;SDS011;62088;50.240;2.696;2024-01-15T03:02:58;21.77;;;10.75;;
73776;SDS011;62088;50.240;2.696;2024-01-15T03:05:26;19.98;;;10.70;;
73776;SDS011;62088;50.240;2.696;2024-01-15T03:07:53;19.23;;;10.35;;
73776;SDS011;62088;50.240;2.696;2024-01-15T03:10:20;18.85;;;9.25;;
73776;SDS011;62088;50.240;2.696;2024-01-15T03:12:47;21.88;;;9.63;;
73776;SDS011;62088;50.240;2.696;2024-01-15T03:15:14;17.27;;;9.50;;
73776;SDS011;62088;50.240;2.696;2024-01-15T03:17:41;17.83;;;9.20;;
73776;SDS011;62088;50.240;2.696;2024-01-15T03:20:09;25.75;;;10.18;;
73776;SDS011;62088;50.240;2.696;2024-01-15T03:22:37;23.80;;;11.70;;
73776;SDS011;62088;50.240;2.696;2024-01-15T03:25:04;20.95;;;9.50;;
73776;SDS011;62088;50.240;2.696;2024-01-15T03:27:33;22.20;;;9.88;;
73776;SDS011;62088;50.240;2.696;2024-01-15T03:30:00;21.40;;;8.95;;
73776;SDS011;62088;50.240;2.696;2024-01-15T03:32:29;22.52;;;10.13;;
73776;SDS011;62088;50.240;2.696;2024-01-15T03:34:56;19.98;;;9.80;;
73776;SDS011;62088;50.240;2.696;2024-01-15T03:37:23;20.20;;;9.57;;
73776;SDS011;62088;50.240;2.696;2024-01-15T03:39:50;28.50;;;10.77;;
73776;SDS011;62088;50.240;2.696;2024-01-15T03:42:17;22.40;;;10.43;;
73776;SDS011;62088;50.240;2.696;2024-01-15T03:44:45;14.27;;;8.38;;
73776;SDS011;62088;50.240;2.696;2024-01-15T03:47:12;20.63;;;10.07;;
73776;SDS011;62088;50.240;2.696;2024-01-15T03:49:39;18.23;;;9.38;;
73776;SDS011;62088;50.240;2.696;2024-01-15T03:52:06;21.95;;;10.38;;
73776;SDS011;62088;50.240;2.696;2024-01-15T03:54:33;27.17;;;9.32;;
73776;SDS011;62088;50.240;2.696;2024-01-15T03:57:00;19.00;;;9.15;;
73776;SDS011;62088;50.240;2.696;2024-01-15T03:59:27;16.33;;;8.15;;
73776;SDS011;62088;50.240;2.696;2024-01-15T04:01:54;16.52;;;9.70;;
73776;SDS011;62088;50.240;2.696;2024-01-15T04:04:21;15.63;;;8.30;;
73776;SDS011;62088;50.240;2.696;2024-01-15T04:06:49;16.23;;;8.70;;
73776;SDS011;62088;50.240;2.696;2024-01-15T04:09:16;14.48;;;7.38;;
73776;SDS011;62088;50.240;2.696;2024-01-15T04:11:43;22.42;;;8.05;;
73776;SDS011;62088;50.240;2.696;2024-01-15T04:14:10;16.00;;;8.43;;
73776;SDS011;62088;50.240;2.696;2024-01-15T04:16:37;16.73;;;7.78;;
73776;SDS011;62088;50.240;2.696;2024-01-15T04:19:04;19.30;;;8.57;;
73776;SDS011;62088;50.240;2.696;2024-01-15T04:21:32;13.50;;;7.32;;
73776;SDS011;62088;50.240;2.696;2024-01-15T04:23:59;16.65;;;7.05;;
73776;SDS011;62088;50.240;2.696;2024-01-15T04:26:26;15.23;;;7.65;;
73776;SDS011;62088;50.240;2.696;2024-01-15T04:28:53;16.05;;;7.80;;
73776;SDS011;62088;50.240;2.696;2024-01-15T04:31:21;13.95;;;6.63;;
73776;SDS011;62088;50.240;2.696;2024-01-15T04:33:49;12.18;;;6.25;;
73776;SDS011;62088;50.240;2.696;2024-01-15T04:36:17;12.90;;;6.55;;
73776;SDS011;62088;50.240;2.696;2024-01-15T04:38:44;12.43;;;6.90;;
73776;SDS011;62088;50.240;2.696;2024-01-15T04:41:15;12.23;;;6.13;;
73776;SDS011;62088;50.240;2.696;2024-01-15T04:43:43;12.27;;;5.82;;
73776;SDS011;62088;50.240;2.696;2024-01-15T04:46:10;11.38;;;5.80;;
73776;SDS011;62088;50.240;2.696;2024-01-15T04:48:37;13.50;;;6.63;;
73776;SDS011;62088;50.240;2.696;2024-01-15T04:51:05;12.57;;;6.38;;
73776;SDS011;62088;50.240;2.696;2024-01-15T04:53:34;10.82;;;5.63;;
73776;SDS011;62088;50.240;2.696;2024-01-15T04:56:01;11.85;;;5.45;;
73776;SDS011;62088;50.240;2.696;2024-01-15T04:58:28;10.98;;;4.75;;
73776;SDS011;62088;50.240;2.696;2024-01-15T05:00:55;13.85;;;4.93;;
73776;SDS011;62088;50.240;2.696;2024-01-15T05:03:23;9.20;;;5.00;;
73776;SDS011;62088;50.240;2.696;2024-01-15T05:05:51;8.90;;;4.28;;
73776;SDS011;62088;50.240;2.696;2024-01-15T05:08:18;9.65;;;3.88;;
73776;SDS011;62088;50.240;2.696;2024-01-15T05:10:45;6.28;;;3.70;;
73776;SDS011;62088;50.240;2.696;2024-01-15T05:13:12;9.18;;;4.63;;
73776;SDS011;62088;50.240;2.696;2024-01-15T05:15:39;5.70;;;3.20;;
73776;SDS011;62088;50.240;2.696;2024-01-15T05:18:07;8.35;;;4.47;;
73776;SDS011;62088;50.240;2.696;2024-01-15T05:20:34;7.78;;;4.57;;
73776;SDS011;62088;50.240;2.696;2024-01-15T05:23:01;11.45;;;4.72;;
73776;SDS011;62088;50.240;2.696;2024-01-15T05:25:28;6.90;;;3.85;;
73776;SDS011;62088;50.240;2.696;2024-01-15T05:27:55;6.43;;;3.35;;
73776;SDS011;62088;50.240;2.696;2024-01-15T05:30:23;13.43;;;4.13;;
73776;SDS011;62088;50.240;2.696;2024-01-15T05:32:50;7.43;;;3.38;;
73776;SDS011;62088;50.240;2.696;2024-01-15T05:35:17;10.70;;;3.30;;
73776;SDS011;62088;50.240;2.696;2024-01-15T05:37:45;5.60;;;3.10;;
73776;SDS011;62088;50.240;2.696;2024-01-15T05:40:12;6.15;;;3.10;;
73776;SDS011;62088;50.240;2.696;2024-01-15T05:42:42;5.88;;;2.67;;
73776;SDS011;62088;50.240;2.696;2024-01-15T05:45:09;6.95;;;2.78;;
73776;SDS011;62088;50.240;2.696;2024-01-15T05:47:36;9.32;;;2.78;;
73776;SDS011;62088;50.240;2.696;2024-01-15T05:50:04;11.68;;;2.53;;
73776;SDS011;62088;50.240;2.696;2024-01-15T05:52:31;5.88;;;2.55;;
73776;SDS011;62088;50.240;2.696;2024-01-15T05:54:58;4.05;;;2.17;;
73776;SDS011;62088;50.240;2.696;2024-01-15T05:57:25;3.47;;;1.50;;
73776;SDS011;62088;50.240;2.696;2024-01-15T05:59:53;7.63;;;2.10;;
73776;SDS011;62088;50.240;2.696;2024-01-15T06:02:20;4.78;;;2.15;;
73776;SDS011;62088;50.240;2.696;2024-01-15T06:04:47;3.20;;;1.70;;
73776;SDS011;62088;50.240;2.696;2024-01-15T06:07:14;4.13;;;1.80;;
73776;SDS011;62088;50.240;2.696;2024-01-15T06:09:42;5.60;;;2.35;;
73776;SDS011;62088;50.240;2.696;2024-01-15T06:12:09;4.57;;;1.83;;
73776;SDS011;62088;50.240;2.696;2024-01-15T06:14:36;9.65;;;1.60;;
73776;SDS011;62088;50.240;2.696;2024-01-15T06:17:03;4.40;;;1.85;;
73776;SDS011;62088;50.240;2.696;2024-01-15T06:19:30;3.28;;;1.73;;
73776;SDS011;62088;50.240;2.696;2024-01-15T06:21:58;3.40;;;1.23;;
73776;SDS011;62088;50.240;2.696;2024-01-15T06:24:26;3.67;;;1.40;;
73776;SDS011;62088;50.240;2.696;2024-01-15T06:26:53;4.60;;;1.85;;
73776;SDS011;62088;50.240;2.696;2024-01-15T06:29:20;2.97;;;1.27;;
73776;SDS011;62088;50.240;2.696;2024-01-15T06:31:47;2.40;;;1.17;;
73776;SDS011;62088;50.240;2.696;2024-01-15T06:34:15;2.92;;;1.30;;
73776;SDS011;62088;50.240;2.696;2024-01-15T06:36:42;4.00;;;1.55;;
73776;SDS011;62088;50.240;2.696;2024-01-15T06:39:10;2.45;;;1.30;;
73776;SDS011;62088;50.240;2.696;2024-01-15T06:41:37;2.63;;;1.20;;
73776;SDS011;62088;50.240;2.696;2024-01-15T06:44:11;3.97;;;1.58;;
73776;SDS011;62088;50.240;2.696;2024-01-15T06:46:42;2.35;;;0.95;;
73776;SDS011;62088;50.240;2.696;2024-01-15T06:49:09;3.67;;;1.17;;
73776;SDS011;62088;50.240;2.696;2024-01-15T06:51:37;2.45;;;1.02;;
73776;SDS011;62088;50.240;2.696;2024-01-15T06:54:05;2.60;;;1.20;;
73776;SDS011;62088;50.240;2.696;2024-01-15T06:56:32;5.80;;;1.20;;
73776;SDS011;62088;50.240;2.696;2024-01-15T06:58:59;2.03;;;1.10;;
73776;SDS011;62088;50.240;2.696;2024-01-15T07:01:26;2.80;;;1.13;;
73776;SDS011;62088;50.240;2.696;2024-01-15T07:03:54;3.70;;;0.77;;
73776;SDS011;62088;50.240;2.696;2024-01-15T07:06:21;4.35;;;1.50;;
73776;SDS011;62088;50.240;2.696;2024-01-15T07:08:49;1.27;;;0.70;;
73776;SDS011;62088;50.240;2.696;2024-01-15T07:11:16;2.92;;;1.20;;
73776;SDS011;62088;50.240;2.696;2024-01-15T07:13:43;3.83;;;1.58;;
73776;SDS011;62088;50.240;2.696;2024-01-15T07:16:10;1.88;;;0.85;;
73776;SDS011;62088;50.240;2.696;2024-01-15T07:18:38;2.15;;;0.80;;
73776;SDS011;62088;50.240;2.696;2024-01-15T07:21:05;1.60;;;0.80;;
73776;SDS011;62088;50.240;2.696;2024-01-15T07:23:32;3.95;;;0.90;;
73776;SDS011;62088;50.240;2.696;2024-01-15T07:25:59;2.85;;;1.10;;
73776;SDS011;62088;50.240;2.696;2024-01-15T07:28:28;2.25;;;1.23;;
73776;SDS011;62088;50.240;2.696;2024-01-15T07:30:55;3.85;;;1.65;;
73776;SDS011;62088;50.240;2.696;2024-01-15T07:33:23;2.30;;;1.10;;
73776;SDS011;62088;50.240;2.696;2024-01-15T07:35:50;2.45;;;1.02;;
73776;SDS011;62088;50.240;2.696;2024-01-15T07:38:17;2.72;;;1.27;;
73776;SDS011;62088;50.240;2.696;2024-01-15T07:40:44;3.95;;;1.10;;
73776;SDS011;62088;50.240;2.696;2024-01-15T07:43:15;2.45;;;1.02;;
73776;SDS011;62088;50.240;2.696;2024-01-15T07:45:43;1.35;;;0.80;;
73776;SDS011;62088;50.240;2.696;2024-01-15T07:48:11;2.55;;;1.10;;
73776;SDS011;62088;50.240;2.696;2024-01-15T07:50:39;3.92;;;1.42;;
73776;SDS011;62088;50.240;2.696;2024-01-15T07:53:06;2.72;;;1.35;;
73776;SDS011;62088;50.240;2.696;2024-01-15T07:55:33;4.18;;;1.17;;
73776;SDS011;62088;50.240;2.696;2024-01-15T07:58:00;3.97;;;1.70;;
73776;SDS011;62088;50.240;2.696;2024-01-15T08:00:41;3.08;;;1.35;;
73776;SDS011;62088;50.240;2.696;2024-01-15T08:03:08;3.35;;;1.70;;
73776;SDS011;62088;50.240;2.696;2024-01-15T08:05:36;11.88;;;2.10;;
73776;SDS011;62088;50.240;2.696;2024-01-15T08:08:03;9.00;;;1.70;;
73776;SDS011;62088;50.240;2.696;2024-01-15T08:10:31;4.40;;;1.40;;
73776;SDS011;62088;50.240;2.696;2024-01-15T08:12:58;3.35;;;1.50;;
73776;SDS011;62088;50.240;2.696;2024-01-15T08:15:25;4.05;;;1.65;;
73776;SDS011;62088;50.240;2.696;2024-01-15T08:18:15;2.85;;;1.30;;
73776;SDS011;62088;50.240;2.696;2024-01-15T08:20:42;3.78;;;1.40;;
73776;SDS011;62088;50.240;2.696;2024-01-15T08:23:10;3.28;;;1.73;;
73776;SDS011;62088;50.240;2.696;2024-01-15T08:25:37;6.85;;;2.13;;
73776;SDS011;62088;50.240;2.696;2024-01-15T08:28:04;4.43;;;1.95;;
73776;SDS011;62088;50.240;2.696;2024-01-15T08:30:31;4.35;;;1.55;;
73776;SDS011;62088;50.240;2.696;2024-01-15T08:32:59;2.97;;;1.33;;
73776;SDS011;62088;50.240;2.696;2024-01-15T08:35:36;3.63;;;1.60;;
73776;SDS011;62088;50.240;2.696;2024-01-15T08:38:03;3.65;;;1.50;;
73776;SDS011;62088;50.240;2.696;2024-01-15T08:40:30;5.55;;;1.75;;
73776;SDS011;62088;50.240;2.696;2024-01-15T08:42:58;4.10;;;1.67;;
73776;SDS011;62088;50.240;2.696;2024-01-15T08:45:25;2.55;;;1.20;;
73776;SDS011;62088;50.240;2.696;2024-01-15T08:47:55;5.65;;;1.33;;
73776;SDS011;62088;50.240;2.696;2024-01-15T08:50:22;2.08;;;1.13;;
73776;SDS011;62088;50.240;2.696;2024-01-15T08:52:49;3.55;;;1.35;;
73776;SDS011;62088;50.240;2.696;2024-01-15T08:55:16;3.50;;;1.52;;
73776;SDS011;62088;50.240;2.696;2024-01-15T08:57:43;4.45;;;1.70;;
73776;SDS011;62088;50.240;2.696;2024-01-15T09:00:10;3.38;;;1.25;;
73776;SDS011;62088;50.240;2.696;2024-01-15T09:02:38;7.57;;;1.90;;
73776;SDS011;62088;50.240;2.696;2024-01-15T09:05:05;3.17;;;1.63;;
73776;SDS011;62088;50.240;2.696;2024-01-15T09:07:33;3.60;;;1.73;;
73776;SDS011;62088;50.240;2.696;2024-01-15T09:10:00;1.98;;;1.00;;
73776;SDS011;62088;50.240;2.696;2024-01-15T09:12:27;5.70;;;1.63;;
73776;SDS011;62088;50.240;2.696;2024-01-15T09:14:55;3.85;;;1.23;;
73776;SDS011;62088;50.240;2.696;2024-01-15T09:17:22;5.03;;;1.25;;
73776;SDS011;62088;50.240;2.696;2024-01-15T09:19:50;2.85;;;1.10;;
73776;SDS011;62088;50.240;2.696;2024-01-15T09:22:17;4.68;;;1.23;;
73776;SDS011;62088;50.240;2.696;2024-01-15T09:24:45;2.85;;;1.25;;
73776;SDS011;62088;50.240;2.696;2024-01-15T09:27:12;1.73;;;0.98;;
73776;SDS011;62088;50.240;2.696;2024-01-15T09:29:40;2.53;;;1.15;;
73776;SDS011;62088;50.240;2.696;2024-01-15T09:32:08;3.60;;;1.05;;
73776;SDS011;62088;50.240;2.696;2024-01-15T09:34:35;2.28;;;1.00;;
73776;SDS011;62088;50.240;2.696;2024-01-15T09:37:03;10.48;;;1.58;;
73776;SDS011;62088;50.240;2.696;2024-01-15T09:39:31;2.70;;;1.08;;
73776;SDS011;62088;50.240;2.696;2024-01-15T09:41:58;3.13;;;1.50;;
73776;SDS011;62088;50.240;2.696;2024-01-15T09:44:26;3.47;;;1.67;;
73776;SDS011;62088;50.240;2.696;2024-01-15T09:46:55;4.22;;;1.70;;
73776;SDS011;62088;50.240;2.696;2024-01-15T09:49:23;4.95;;;1.50;;
73776;SDS011;62088;50.240;2.696;2024-01-15T09:51:51;3.30;;;1.42;;
73776;SDS011;62088;50.240;2.696;2024-01-15T09:54:31;3.22;;;1.17;;
73776;SDS011;62088;50.240;2.696;2024-01-15T09:57:02;3.15;;;1.13;;
73776;SDS011;62088;50.240;2.696;2024-01-15T09:59:30;5.75;;;1.33;;
73776;SDS011;62088;50.240;2.696;2024-01-15T10:01:58;2.88;;;1.38;;
73776;SDS011;62088;50.240;2.696;2024-01-15T10:04:26;5.15;;;1.80;;
73776;SDS011;62088;50.240;2.696;2024-01-15T10:06:53;4.00;;;1.20;;
73776;SDS011;62088;50.240;2.696;2024-01-15T10:09:22;2.17;;;1.13;;
73776;SDS011;62088;50.240;2.696;2024-01-15T10:11:50;2.88;;;1.20;;
73776;SDS011;62088;50.240;2.696;2024-01-15T10:14:17;3.28;;;1.27;;
73776;SDS011;62088;50.240;2.696;2024-01-15T10:16:44;2.92;;;1.10;;
73776;SDS011;62088;50.240;2.696;2024-01-15T10:19:11;5.53;;;1.80;;
73776;SDS011;62088;50.240;2.696;2024-01-15T10:21:38;6.22;;;1.30;;
73776;SDS011;62088;50.240;2.696;2024-01-15T10:24:06;6.65;;;0.82;;
73776;SDS011;62088;50.240;2.696;2024-01-15T10:26:33;3.50;;;1.33;;
73776;SDS011;62088;50.240;2.696;2024-01-15T10:29:00;2.80;;;1.20;;
73776;SDS011;62088;50.240;2.696;2024-01-15T10:31:28;3.10;;;1.17;;
73776;SDS011;62088;50.240;2.696;2024-01-15T10:34:09;3.47;;;1.40;;
73776;SDS011;62088;50.240;2.696;2024-01-15T10:36:39;4.22;;;1.42;;
73776;SDS011;62088;50.240;2.696;2024-01-15T10:39:07;5.13;;;1.65;;
73776;SDS011;62088;50.240;2.696;2024-01-15T10:41:34;2.05;;;1.10;;
73776;SDS011;62088;50.240;2.696;2024-01-15T10:44:02;2.45;;;1.13;;
73776;SDS011;62088;50.240;2.696;2024-01-15T10:46:29;3.35;;;1.33;;
73776;SDS011;62088;50.240;2.696;2024-01-15T10:48:58;6.80;;;1.27;;
73776;SDS011;62088;50.240;2.696;2024-01-15T10:51:25;2.00;;;0.90;;
73776;SDS011;62088;50.240;2.696;2024-01-15T10:53:52;2.00;;;0.80;;
73776;SDS011;62088;50.240;2.696;2024-01-15T10:56:21;3.05;;;1.27;;
73776;SDS011;62088;50.240;2.696;2024-01-15T10:58:49;5.35;;;1.15;;
73776;SDS011;62088;50.240;2.696;2024-01-15T11:01:17;4.25;;;0.90;;
73776;SDS011;62088;50.240;2.696;2024-01-15T11:03:46;2.78;;;1.17;;
73776;SDS011;62088;50.240;2.696;2024-01-15T11:06:17;1.08;;;0.55;;
73776;SDS011;62088;50.240;2.696;2024-01-15T11:08:49;5.15;;;1.13;;
73776;SDS011;62088;50.240;2.696;2024-01-15T11:11:16;5.82;;;1.20;;
73776;SDS011;62088;50.240;2.696;2024-01-15T11:13:46;2.60;;;0.90;;
73776;SDS011;62088;50.240;2.696;2024-01-15T11:16:16;3.72;;;0.90;;
73776;SDS011;62088;50.240;2.696;2024-01-15T11:19:00;1.75;;;0.90;;
73776;SDS011;62088;50.240;2.696;2024-01-15T11:21:29;2.40;;;0.95;;
73776;SDS011;62088;50.240;2.696;2024-01-15T11:23:57;3.15;;;1.00;;
73776;SDS011;62088;50.240;2.696;2024-01-15T11:26:32;1.80;;;0.73;;
73776;SDS011;62088;50.240;2.696;2024-01-15T11:29:00;4.22;;;0.95;;
73776;SDS011;62088;50.240;2.696;2024-01-15T11:31:56;3.38;;;1.35;;
73776;SDS011;62088;50.240;2.696;2024-01-15T11:34:17;1.77;;;0.80;;
73776;SDS011;62088;50.240;2.696;2024-01-15T11:41:58;3.10;;;0.97;;
73776;SDS011;62088;50.240;2.696;2024-01-15T11:44:26;5.25;;;1.35;;
73776;SDS011;62088;50.240;2.696;2024-01-15T11:46:57;8.65;;;1.15;;
73776;SDS011;62088;50.240;2.696;2024-01-15T11:49:51;2.97;;;1.10;;
73776;SDS011;62088;50.240;2.696;2024-01-15T11:52:33;5.53;;;1.20;;
73776;SDS011;62088;50.240;2.696;2024-01-15T11:55:11;2.20;;;0.80;;
73776;SDS011;62088;50.240;2.696;2024-01-15T11:57:46;2.97;;;1.08;;
73776;SDS011;62088;50.240;2.696;2024-01-15T12:00:18;5.80;;;0.85;;
73776;SDS011;62088;50.240;2.696;2024-01-15T12:02:46;0.88;;;0.60;;
73776;SDS011;62088;50.240;2.696;2024-01-15T12:05:15;5.88;;;0.73;;
73776;SDS011;62088;50.240;2.696;2024-01-15T12:07:43;1.85;;;0.73;;
73776;SDS011;62088;50.240;2.696;2024-01-15T12:12:58;1.73;;;0.57;;
73776;SDS011;62088;50.240;2.696;2024-01-15T12:15:28;7.60;;;1.25;;
73776;SDS011;62088;50.240;2.696;2024-01-15T12:17:57;1.58;;;0.88;;
73776;SDS011;62088;50.240;2.696;2024-01-15T12:20:26;4.20;;;0.80;;
73776;SDS011;62088;50.240;2.696;2024-01-15T12:22:55;1.27;;;0.60;;
73776;SDS011;62088;50.240;2.696;2024-01-15T12:27:58;2.35;;;0.93;;
73776;SDS011;62088;50.240;2.696;2024-01-15T12:30:27;1.63;;;0.60;;
73776;SDS011;62088;50.240;2.696;2024-01-15T12:32:55;1.75;;;0.80;;
73776;SDS011;62088;50.240;2.696;2024-01-15T12:35:40;2.80;;;1.63;;
73776;SDS011;62088;50.240;2.696;2024-01-15T12:38:07;1.42;;;0.70;;
73776;SDS011;62088;50.240;2.696;2024-01-15T12:40:34;1.95;;;0.80;;
73776;SDS011;62088;50.240;2.696;2024-01-15T12:43:04;2.58;;;0.80;;
73776;SDS011;62088;50.240;2.696;2024-01-15T12:45:33;2.45;;;0.90;;
73776;SDS011;62088;50.240;2.696;2024-01-15T12:48:02;3.83;;;1.08;;
73776;SDS011;62088;50.240;2.696;2024-01-15T12:50:30;1.90;;;0.60;;
73776;SDS011;62088;50.240;2.696;2024-01-15T12:53:00;1.48;;;0.65;;
73776;SDS011;62088;50.240;2.696;2024-01-15T12:55:28;2.95;;;1.85;;
73776;SDS011;62088;50.240;2.696;2024-01-15T12:57:55;2.28;;;0.70;;
73776;SDS011;62088;50.240;2.696;2024-01-15T13:00:22;5.93;;;1.40;;
73776;SDS011;62088;50.240;2.696;2024-01-15T13:02:49;2.58;;;0.95;;
73776;SDS011;62088;50.240;2.696;2024-01-15T13:05:17;1.20;;;0.70;;
73776;SDS011;62088;50.240;2.696;2024-01-15T13:07:46;2.75;;;0.80;;
73776;SDS011;62088;50.240;2.696;2024-01-15T13:10:13;4.57;;;0.80;;
73776;SDS011;62088;50.240;2.696;2024-01-15T13:12:40;2.05;;;0.80;;
73776;SDS011;62088;50.240;2.696;2024-01-15T13:15:08;1.40;;;0.70;;
73776;SDS011;62088;50.240;2.696;2024-01-15T13:17:41;2.22;;;0.70;;
73776;SDS011;62088;50.240;2.696;2024-01-15T13:20:09;1.35;;;0.70;;
73776;SDS011;62088;50.240;2.696;2024-01-15T13:22:38;2.22;;;0.90;;
73776;SDS011;62088;50.240;2.696;2024-01-15T13:25:07;0.90;;;0.43;;
73776;SDS011;62088;50.240;2.696;2024-01-15T13:27:35;2.10;;;0.80;;
73776;SDS011;62088;50.240;2.696;2024-01-15T13:30:04;3.53;;;0.68;;
73776;SDS011;62088;50.240;2.696;2024-01-15T13:32:34;3.78;;;0.80;;
73776;SDS011;62088;50.240;2.696;2024-01-15T13:35:02;4.15;;;1.00;;
73776;SDS011;62088;50.240;2.696;2024-01-15T13:37:32;1.83;;;0.75;;
73776;SDS011;62088;50.240;2.696;2024-01-15T13:39:59;2.38;;;0.70;;
73776;SDS011;62088;50.240;2.696;2024-01-15T13:42:26;1.95;;;0.90;;
73776;SDS011;62088;50.240;2.696;2024-01-15T13:44:54;1.92;;;0.68;;
73776;SDS011;62088;50.240;2.696;2024-01-15T13:47:40;2.45;;;0.70;;
73776;SDS011;62088;50.240;2.696;2024-01-15T13:50:09;1.35;;;0.55;;
73776;SDS011;62088;50.240;2.696;2024-01-15T13:52:36;2.03;;;0.75;;
73776;SDS011;62088;50.240;2.696;2024-01-15T13:55:04;1.17;;;0.68;;
73776;SDS011;62088;50.240;2.696;2024-01-15T13:57:32;5.10;;;1.00;;
73776;SDS011;62088;50.240;2.696;2024-01-15T13:59:59;3.17;;;0.90;;
73776;SDS011;62088;50.240;2.696;2024-01-15T14:02:26;2.58;;;0.75;;
73776;SDS011;62088;50.240;2.696;2024-01-15T14:04:54;2.65;;;0.77;;
73776;SDS011;62088;50.240;2.696;2024-01-15T14:07:21;3.05;;;0.90;;
73776;SDS011;62088;50.240;2.696;2024-01-15T14:09:48;2.58;;;0.98;;
73776;SDS011;62088;50.240;2.696;2024-01-15T14:12:15;3.72;;;0.98;;
73776;SDS011;62088;50.240;2.696;2024-01-15T14:14:42;4.90;;;1.23;;
73776;SDS011;62088;50.240;2.696;2024-01-15T14:17:09;1.73;;;0.70;;
73776;SDS011;62088;50.240;2.696;2024-01-15T14:19:37;2.13;;;0.90;;
73776;SDS011;62088;50.240;2.696;2024-01-15T14:22:05;3.15;;;0.93;;
73776;SDS011;62088;50.240;2.696;2024-01-15T14:24:32;2.03;;;0.70;;
73776;SDS011;62088;50.240;2.696;2024-01-15T14:26:59;3.45;;;0.88;;
73776;SDS011;62088;50.240;2.696;2024-01-15T14:29:26;2.08;;;0.80;;
73776;SDS011;62088;50.240;2.696;2024-01-15T14:31:53;3.05;;;1.02;;
73776;SDS011;62088;50.240;2.696;2024-01-15T14:34:21;1.83;;;0.80;;
73776;SDS011;62088;50.240;2.696;2024-01-15T14:36:50;7.97;;;0.80;;
73776;SDS011;62088;50.240;2.696;2024-01-15T14:39:24;3.83;;;0.82;;
73776;SDS011;62088;50.240;2.696;2024-01-15T14:41:52;4.53;;;0.93;;
73776;SDS011;62088;50.240;2.696;2024-01-15T14:44:19;3.90;;;0.95;;
73776;SDS011;62088;50.240;2.696;2024-01-15T14:46:47;4.65;;;1.17;;
73776;SDS011;62088;50.240;2.696;2024-01-15T14:49:14;5.72;;;1.30;;
73776;SDS011;62088;50.240;2.696;2024-01-15T14:51:44;2.70;;;1.08;;
73776;SDS011;62088;50.240;2.696;2024-01-15T14:54:11;1.20;;;0.60;;
73776;SDS011;62088;50.240;2.696;2024-01-15T14:56:38;3.33;;;0.82;;